createdAt,value
2023-04-16T00:02:04.896Z,93139.38
2023-04-16T00:04:32.035Z,93139.09
2023-04-16T00:06:59.099Z,93136.72
2023-04-16T00:09:26.200Z,93134.78
2023-04-16T00:11:53.148Z,93140.09
2023-04-16T00:14:20.108Z,93138.03
2023-04-16T00:16:48.471Z,93131.63
2023-04-16T00:19:15.515Z,93133.56
2023-04-16T00:21:42.630Z,93131.16
2023-04-16T00:24:09.877Z,93132.00
2023-04-16T00:26:36.872Z,93125.44
2023-04-16T00:29:03.893Z,93128.63
2023-04-16T00:31:32.916Z,93129.28
2023-04-16T00:34:01.388Z,93126.06
2023-04-16T00:36:28.714Z,93128.75
2023-04-16T00:38:56.670Z,93127.50
2023-04-16T00:41:23.748Z,93121.75
2023-04-16T00:43:51.781Z,93125.78
2023-04-16T00:46:19.646Z,93122.75
2023-04-16T00:48:46.716Z,93117.94
2023-04-16T00:51:15.530Z,93116.22
2023-04-16T00:53:44.805Z,93116.69
2023-04-16T00:56:12.418Z,93123.75
2023-04-16T00:58:39.849Z,93117.66
2023-04-16T01:01:06.999Z,93123.75
2023-04-16T01:03:39.179Z,93119.75
2023-04-16T01:06:06.857Z,93118.97
2023-04-16T01:08:35.718Z,93124.56
2023-04-16T01:11:02.815Z,93121.88
2023-04-16T01:13:30.018Z,93126.69
2023-04-16T01:15:56.977Z,93120.13
2023-04-16T01:18:24.231Z,93126.88
2023-04-16T01:20:52.851Z,93122.38
2023-04-16T01:23:19.690Z,93117.59
2023-04-16T01:25:46.795Z,93121.28
2023-04-16T01:28:13.805Z,93125.09
2023-04-16T01:30:41.460Z,93121.59
2023-04-16T01:33:18.454Z,93111.66
2023-04-16T01:35:45.391Z,93115.03
2023-04-16T01:38:16.004Z,93107.81
2023-04-16T01:40:43.180Z,93107.34
2023-04-16T01:43:10.184Z,93100.94
2023-04-16T01:45:37.298Z,93104.78
2023-04-16T01:48:04.817Z,93098.22
2023-04-16T01:50:32.194Z,93094.53
2023-04-16T01:52:59.352Z,93094.22
2023-04-16T01:55:27.738Z,93089.59
2023-04-16T01:57:54.813Z,93091.66
2023-04-16T02:00:26.241Z,93095.34
2023-04-16T02:02:53.856Z,93094.38
2023-04-16T02:05:26.461Z,93099.16
2023-04-16T02:07:53.411Z,93096.59
2023-04-16T02:10:20.802Z,93098.22
2023-04-16T02:12:49.661Z,93093.75
2023-04-16T02:15:16.651Z,93099.97
2023-04-16T02:17:44.092Z,93098.88
2023-04-16T02:20:12.031Z,93093.56
2023-04-16T02:22:46.326Z,93094.06
2023-04-16T02:25:16.547Z,93090.72
2023-04-16T02:27:43.998Z,93096.47
2023-04-16T02:30:34.976Z,93082.72
2023-04-16T02:33:05.549Z,93079.81
2023-04-16T02:35:32.862Z,93086.53
2023-04-16T02:37:59.957Z,93086.38
2023-04-16T02:40:27.120Z,93085.56
2023-04-16T02:42:54.532Z,93080.31
2023-04-16T02:45:21.704Z,93077.41
2023-04-16T02:47:50.528Z,93077.41
2023-04-16T02:50:18.073Z,93075.00
2023-04-16T02:52:45.236Z,93073.56
2023-04-16T02:55:12.366Z,93075.19
2023-04-16T02:57:39.485Z,93071.50
2023-04-16T03:00:08.134Z,93069.94
2023-04-16T03:02:35.028Z,93075.38
2023-04-16T03:05:04.008Z,93074.22
2023-04-16T03:07:31.060Z,93068.78
2023-04-16T03:09:58.217Z,93072.63
2023-04-16T03:12:25.321Z,93074.72
2023-04-16T03:14:55.213Z,93076.59
2023-04-16T03:17:22.242Z,93076.16
2023-04-16T03:19:50.863Z,93074.22
2023-04-16T03:22:21.530Z,93076.97
2023-04-16T03:24:48.538Z,93074.22
2023-04-16T03:27:15.564Z,93071.50
2023-04-16T03:29:42.632Z,93081.91
2023-04-16T03:32:09.999Z,93078.06
2023-04-16T03:34:37.344Z,93078.84
2023-04-16T03:37:06.213Z,93081.88
2023-04-16T03:39:35.028Z,93083.66
2023-04-16T03:42:02.387Z,93088.63
2023-04-16T03:44:29.801Z,93089.25
2023-04-16T03:46:56.844Z,93091.34
2023-04-16T03:49:24.200Z,93090.69
2023-04-16T03:51:51.560Z,93089.09
2023-04-16T03:54:20.140Z,93083.81
2023-04-16T03:56:54.674Z,93088.94
2023-04-16T03:59:21.664Z,93086.06
2023-04-16T04:01:48.912Z,93095.81
2023-04-16T04:04:16.312Z,93103.31
2023-04-16T04:06:45.343Z,93100.16
2023-04-16T04:09:12.588Z,93109.91
2023-04-16T04:11:39.611Z,93105.59
2023-04-16T04:14:08.227Z,93106.69
2023-04-16T04:16:35.390Z,93113.91
2023-04-16T04:19:02.373Z,93117.75
2023-04-16T04:21:29.870Z,93114.56
2023-04-16T04:23:57.555Z,93115.81
2023-04-16T04:26:24.607Z,93117.59
2023-04-16T04:28:51.696Z,93126.88
2023-04-16T04:31:20.618Z,93122.06
2023-04-16T04:33:47.645Z,93129.25
2023-04-16T04:36:14.621Z,93124.81
2023-04-16T04:38:42.354Z,93129.94
2023-04-16T04:41:09.599Z,93130.88
2023-04-16T04:43:38.322Z,93129.88
2023-04-16T04:46:05.780Z,93132.28
2023-04-16T04:48:34.300Z,93135.66
2023-04-16T04:51:02.991Z,93128.44
2023-04-16T04:53:31.745Z,93137.88
2023-04-16T04:56:08.967Z,93132.09
2023-04-16T04:58:39.626Z,93129.72
2023-04-16T05:01:06.790Z,93142.94
2023-04-16T05:03:35.268Z,93134.13
2023-04-16T05:06:02.172Z,93136.19
2023-04-16T05:08:29.161Z,93136.13
2023-04-16T05:10:56.097Z,93133.41
2023-04-16T05:13:23.152Z,93136.72
2023-04-16T05:15:50.552Z,93127.72
2023-04-16T05:18:17.512Z,93133.47
2023-04-16T05:20:46.210Z,93122.81
2023-04-16T05:23:13.216Z,93129.50
2023-04-16T05:25:40.286Z,93121.75
2023-04-16T05:28:07.244Z,93120.56
2023-04-16T05:30:34.214Z,93124.31
2023-04-16T05:33:01.249Z,93123.31
2023-04-16T05:35:28.407Z,93127.41
2023-04-16T05:37:56.827Z,93127.53
2023-04-16T05:40:23.782Z,93124.28
2023-04-16T05:42:50.874Z,93121.63
2023-04-16T05:45:17.868Z,93125.94
2023-04-16T05:47:45.158Z,93129.06
2023-04-16T05:50:12.354Z,93120.66
2023-04-16T05:52:39.376Z,93124.91
2023-04-16T05:55:08.525Z,93121.63
2023-04-16T05:57:35.509Z,93119.94
2023-04-16T06:00:02.442Z,93125.56
2023-04-16T06:02:39.163Z,93126.25
2023-04-16T06:05:06.629Z,93129.53
2023-04-16T06:07:33.678Z,93130.50
2023-04-16T06:10:00.729Z,93118.97
2023-04-16T06:12:29.154Z,93118.53
2023-04-16T06:14:56.356Z,93118.94
2023-04-16T06:17:23.513Z,93122.16
2023-04-16T06:19:50.565Z,93116.34
2023-04-16T06:22:17.576Z,93116.78
2023-04-16T06:24:44.614Z,93121.72
2023-04-16T06:27:12.014Z,93116.56
2023-04-16T06:29:41.826Z,93118.22
2023-04-16T06:32:09.141Z,93107.38
2023-04-16T06:34:38.021Z,93114.25
2023-04-16T06:37:05.237Z,93115.16
2023-04-16T06:39:32.159Z,93114.34
2023-04-16T06:41:59.198Z,93113.44
2023-04-16T06:44:26.094Z,93113.16
2023-04-16T06:46:54.503Z,93119.16
2023-04-16T06:49:22.005Z,93117.03
2023-04-16T06:51:49.088Z,93119.28
2023-04-16T06:54:16.845Z,93121.69
2023-04-16T06:56:43.890Z,93124.34
2023-04-16T06:59:11.301Z,93122.81
2023-04-16T07:01:38.479Z,93117.88
2023-04-16T07:04:07.078Z,93117.88
2023-04-16T07:06:34.638Z,93118.09
2023-04-16T07:09:01.577Z,93118.91
2023-04-16T07:11:28.735Z,93128.25
2023-04-16T07:13:55.721Z,93119.88
2023-04-16T07:16:22.802Z,93123.13
2023-04-16T07:18:49.827Z,93124.53
2023-04-16T07:21:18.251Z,93126.34
2023-04-16T07:23:45.209Z,93122.63
2023-04-16T07:26:12.221Z,93121.47
2023-04-16T07:28:39.174Z,93128.63
2023-04-16T07:31:06.400Z,93119.69
2023-04-16T07:33:33.811Z,93122.09
2023-04-16T07:36:00.909Z,93114.56
2023-04-16T07:38:29.262Z,93113.00
2023-04-16T07:40:56.986Z,93119.56
2023-04-16T07:43:23.979Z,93105.81
2023-04-16T07:45:51.084Z,93116.34
2023-04-16T07:48:18.141Z,93118.38
2023-04-16T07:50:45.359Z,93117.00
2023-04-16T07:53:12.372Z,93119.78
2023-04-16T07:55:41.093Z,93119.78
2023-04-16T07:58:09.621Z,93120.56
2023-04-16T08:00:36.650Z,93112.38
2023-04-16T08:03:04.117Z,93118.13
2023-04-16T08:05:31.169Z,93115.69
2023-04-16T08:07:58.106Z,93111.06
2023-04-16T08:10:25.162Z,93112.81
2023-04-16T08:12:53.826Z,93110.13
2023-04-16T08:15:20.802Z,93114.25
2023-04-16T08:17:47.815Z,93109.00
2023-04-16T08:20:17.590Z,93110.09
2023-04-16T08:22:45.907Z,93109.69
2023-04-16T08:25:12.845Z,93104.03
2023-04-16T08:27:39.870Z,93111.97
2023-04-16T08:30:08.665Z,93103.75
2023-04-16T08:32:35.827Z,93102.09
2023-04-16T08:35:02.967Z,93103.56
2023-04-16T08:37:29.974Z,93102.91
2023-04-16T08:39:56.911Z,93094.44
2023-04-16T08:42:30.330Z,93093.31
2023-04-16T08:45:06.705Z,93083.25
2023-04-16T08:47:37.095Z,93095.66
2023-04-16T08:50:05.775Z,93092.94
2023-04-16T08:52:33.109Z,93089.47
2023-04-16T08:55:05.444Z,93088.44
2023-04-16T08:57:39.013Z,93089.81
2023-04-16T09:00:08.981Z,93083.38
2023-04-16T09:02:37.832Z,93084.34
2023-04-16T09:05:07.874Z,93088.38
2023-04-16T09:07:35.567Z,93089.41
2023-04-16T09:10:03.402Z,93088.63
2023-04-16T09:12:30.872Z,93087.31
2023-04-16T09:14:59.830Z,93094.03
2023-04-16T09:17:27.620Z,93081.94
2023-04-16T09:19:56.036Z,93082.69
2023-04-16T09:22:22.990Z,93080.38
2023-04-16T09:24:50.074Z,93079.03
2023-04-16T09:27:17.499Z,93076.50
2023-04-16T09:29:44.604Z,93071.19
2023-04-16T09:32:12.202Z,93073.97
2023-04-16T09:37:42.740Z,93075.00
2023-04-16T09:40:10.209Z,93069.31
2023-04-16T09:42:37.506Z,93073.97
2023-04-16T09:45:06.143Z,93070.22
2023-04-16T09:47:41.686Z,93071.81
2023-04-16T09:50:12.999Z,93065.69
2023-04-16T09:52:40.318Z,93062.66
2023-04-16T09:55:08.843Z,93064.72
2023-04-16T09:57:37.925Z,93060.50
2023-04-16T10:00:06.508Z,93059.25
2023-04-16T10:02:34.722Z,93059.50
2023-04-16T10:05:06.128Z,93049.72
2023-04-16T10:07:34.693Z,93049.41
2023-04-16T10:10:01.776Z,93047.94
2023-04-16T10:12:30.830Z,93048.97
2023-04-16T10:14:57.741Z,93045.34
2023-04-16T10:17:25.253Z,93040.13
2023-04-16T10:19:52.517Z,93038.91
2023-04-16T10:22:19.473Z,93036.03
2023-04-16T10:24:47.340Z,93032.97
2023-04-16T10:27:14.042Z,93025.56
2023-04-16T10:29:43.211Z,93024.38
2023-04-16T10:32:10.439Z,93022.34
2023-04-16T10:34:37.448Z,93023.44
2023-04-16T10:37:04.388Z,93022.56
2023-04-16T10:39:33.011Z,93020.38
2023-04-16T10:42:11.217Z,93027.34
2023-04-16T10:44:38.377Z,93023.38
2023-04-16T10:47:12.852Z,93022.66
2023-04-16T10:49:40.305Z,93028.34
2023-04-16T10:52:12.356Z,93021.53
2023-04-16T10:54:40.533Z,93017.81
2023-04-16T10:57:09.226Z,93019.59
2023-04-16T10:59:37.263Z,93016.13
2023-04-16T11:02:08.090Z,93020.31
2023-04-16T11:04:37.438Z,93016.38
2023-04-16T11:07:16.640Z,93013.88
2023-04-16T11:10:02.439Z,93018.06
2023-04-16T11:12:34.356Z,93009.56
2023-04-16T11:15:02.820Z,93007.44
2023-04-16T11:17:33.045Z,93001.72
2023-04-16T11:20:01.515Z,93000.88
2023-04-16T11:22:28.494Z,93001.81
2023-04-16T11:24:56.719Z,92998.44
2023-04-16T11:27:24.358Z,92996.06
2023-04-16T11:29:59.142Z,92993.47
2023-04-16T11:32:26.287Z,92993.16
2023-04-16T11:34:53.276Z,92984.53
2023-04-16T11:37:32.273Z,92978.94
2023-04-16T11:39:59.281Z,92978.16
2023-04-16T11:42:28.505Z,92980.56
2023-04-16T11:44:57.236Z,92976.13
2023-04-16T11:47:24.664Z,92970.59
2023-04-16T11:49:51.744Z,92975.31
2023-04-16T11:52:30.813Z,92963.03
2023-04-16T11:54:58.829Z,92969.88
2023-04-16T11:57:26.879Z,92964.88
2023-04-16T12:00:02.450Z,92960.44
2023-04-16T12:02:52.380Z,92951.41
2023-04-16T12:05:31.128Z,92954.16
2023-04-16T12:08:00.933Z,92950.31
2023-04-16T12:10:28.381Z,92949.56
2023-04-16T12:12:56.036Z,92936.19
2023-04-16T12:15:23.295Z,92939.78
2023-04-16T12:17:51.575Z,92936.91
2023-04-16T12:20:18.670Z,92929.47
2023-04-16T12:22:47.816Z,92936.84
2023-04-16T12:25:17.712Z,92933.66
2023-04-16T12:27:53.053Z,92936.75
2023-04-16T12:30:22.679Z,92932.44
2023-04-16T12:32:51.885Z,92933.44
2023-04-16T12:35:30.554Z,92925.00
2023-04-16T12:37:57.728Z,92916.25
2023-04-16T12:40:26.333Z,92911.81
2023-04-16T12:42:53.329Z,92912.06
2023-04-16T12:45:20.813Z,92918.25
2023-04-16T12:47:47.801Z,92916.25
2023-04-16T12:50:14.838Z,92916.81
2023-04-16T12:53:00.249Z,92905.72
2023-04-16T12:55:28.597Z,92908.13
2023-04-16T12:57:55.766Z,92907.53
2023-04-16T13:00:23.102Z,92901.09
2023-04-16T13:02:50.189Z,92895.78
2023-04-16T13:05:19.303Z,92890.94
2023-04-16T13:07:46.531Z,92881.09
2023-04-16T13:10:14.023Z,92887.44
2023-04-16T13:12:42.505Z,92882.22
2023-04-16T13:15:10.698Z,92888.44
2023-04-16T13:17:37.730Z,92899.22
2023-04-16T13:20:05.654Z,92900.81
2023-04-16T13:22:32.655Z,92894.75
2023-04-16T13:24:59.568Z,92897.28
2023-04-16T13:27:26.725Z,92907.50
2023-04-16T13:29:55.228Z,92894.06
2023-04-16T13:32:22.249Z,92900.94
2023-04-16T13:34:49.212Z,92901.94
2023-04-16T13:37:16.180Z,92903.47
2023-04-16T13:39:43.179Z,92898.16
2023-04-16T13:42:10.295Z,92883.03
2023-04-16T13:44:37.316Z,92892.63
2023-04-16T13:47:05.788Z,92882.69
2023-04-16T13:49:36.032Z,92879.13
2023-04-16T13:52:03.324Z,92881.91
2023-04-16T13:54:30.311Z,92883.69
2023-04-16T13:56:57.329Z,92882.66
2023-04-16T13:59:24.474Z,92882.47
2023-04-16T14:01:51.713Z,92885.63
2023-04-16T14:04:22.383Z,92890.78
2023-04-16T14:06:49.988Z,92895.56
2023-04-16T14:09:16.975Z,92897.50
2023-04-16T14:11:44.015Z,92892.72
2023-04-16T14:14:11.125Z,92894.28
2023-04-16T14:16:38.199Z,92897.66
2023-04-16T14:19:05.379Z,92895.56
2023-04-16T14:21:33.705Z,92895.53
2023-04-16T14:24:00.662Z,92889.06
2023-04-16T14:26:27.638Z,92895.94
2023-04-16T14:28:54.594Z,92906.28
2023-04-16T14:31:21.757Z,92914.34
2023-04-16T14:33:48.782Z,92923.94
2023-04-16T14:36:15.787Z,92923.56
2023-04-16T14:38:44.326Z,92927.41
2023-04-16T14:41:12.659Z,92932.22
2023-04-16T14:43:42.542Z,92946.94
2023-04-16T14:46:09.906Z,92950.72
2023-04-16T14:48:36.925Z,92963.47
2023-04-16T14:51:03.910Z,92968.22
2023-04-16T14:53:31.628Z,92977.38
2023-04-16T14:56:00.098Z,92969.81
2023-04-16T14:58:27.092Z,92983.78
2023-04-16T15:00:54.207Z,92978.25
2023-04-16T15:03:21.448Z,92971.47
2023-04-16T15:05:55.324Z,92972.69
2023-04-16T15:08:22.576Z,92966.53
2023-04-16T15:10:49.869Z,92971.53
2023-04-16T15:13:18.443Z,92971.34
2023-04-16T15:15:45.501Z,92973.34
2023-04-16T15:18:12.577Z,92971.34
2023-04-16T15:20:39.473Z,92975.16
2023-04-16T15:23:06.630Z,92974.53
2023-04-16T15:25:34.111Z,92977.94
2023-04-16T15:28:02.657Z,92980.94
2023-04-16T15:30:31.315Z,92986.28
2023-04-16T15:32:58.354Z,92984.88
2023-04-16T15:35:25.513Z,92986.84
2023-04-16T15:37:52.904Z,92992.41
2023-04-16T15:40:20.651Z,92995.81
2023-04-16T15:42:47.719Z,93001.19
2023-04-16T15:45:14.715Z,92989.06
2023-04-16T15:47:45.366Z,92991.44
2023-04-16T15:50:12.511Z,92999.78
2023-04-16T15:52:40.318Z,93002.56
2023-04-16T15:55:07.676Z,93000.59
2023-04-16T15:57:34.686Z,92996.22
2023-04-16T16:00:06.376Z,93000.81
2023-04-16T16:02:34.787Z,92998.59
2023-04-16T16:05:04.682Z,93002.38
2023-04-16T16:07:31.832Z,92999.63
2023-04-16T16:09:58.925Z,93005.56
2023-04-16T16:12:25.917Z,93000.38
2023-04-16T16:14:52.857Z,93010.16
2023-04-16T16:17:20.588Z,93003.97
2023-04-16T16:19:47.661Z,93002.41
2023-04-16T16:22:20.373Z,93002.78
2023-04-16T16:24:49.123Z,92997.81
2023-04-16T16:27:16.196Z,92995.41
2023-04-16T16:29:43.444Z,92998.41
2023-04-16T16:32:11.165Z,92995.41
2023-04-16T16:34:38.125Z,92992.81
2023-04-16T16:37:05.105Z,92995.63
2023-04-16T16:39:33.408Z,92998.97
2023-04-16T16:42:00.344Z,93002.75
2023-04-16T16:44:27.605Z,93006.91
2023-04-16T16:46:54.631Z,93008.50
2023-04-16T16:49:21.575Z,93021.00
2023-04-16T16:51:48.745Z,93011.25
2023-04-16T16:54:15.805Z,93020.19
2023-04-16T16:56:44.101Z,93023.34
2023-04-16T16:59:11.581Z,93020.56
2023-04-16T17:01:38.896Z,93025.72
2023-04-16T17:04:06.161Z,93022.50
2023-04-16T17:06:33.604Z,93025.25
2023-04-16T17:09:01.001Z,93025.41
2023-04-16T17:11:29.348Z,93031.94
2023-04-16T17:13:57.913Z,93034.63
2023-04-16T17:16:25.022Z,93036.16
2023-04-16T17:18:52.190Z,93032.78
2023-04-16T17:21:19.117Z,93031.56
2023-04-16T17:23:46.097Z,93031.34
2023-04-16T17:26:13.224Z,93035.47
2023-04-16T17:28:40.124Z,93038.03
2023-04-16T17:31:08.673Z,93031.84
2023-04-16T17:33:35.856Z,93030.41
2023-04-16T17:36:21.427Z,93033.94
2023-04-16T17:38:48.775Z,93024.75
2023-04-16T17:41:15.816Z,93023.72
2023-04-16T17:43:43.535Z,93020.34
2023-04-16T17:46:12.002Z,93022.50
2023-04-16T17:48:39.076Z,93027.38
2023-04-16T17:51:10.155Z,93024.47
2023-04-16T17:53:37.192Z,93028.97
2023-04-16T17:56:04.424Z,93031.13
2023-04-16T17:58:35.059Z,93036.03
2023-04-16T18:01:02.153Z,93034.72
2023-04-16T18:03:31.484Z,93044.34
2023-04-16T18:05:58.845Z,93047.75
2023-04-16T18:08:26.273Z,93044.47
2023-04-16T18:10:55.091Z,93043.38
2023-04-16T18:13:22.147Z,93047.84
2023-04-16T18:15:49.176Z,93050.50
2023-04-16T18:18:16.296Z,93051.41
2023-04-16T18:20:44.818Z,93053.06
2023-04-16T18:23:11.828Z,93049.00
2023-04-16T18:25:40.314Z,93052.28
2023-04-16T18:28:07.522Z,93048.47
2023-04-16T18:30:35.474Z,93042.00
2023-04-16T18:35:32.280Z,93048.91
2023-04-16T18:38:00.584Z,93046.41
2023-04-16T18:40:29.306Z,93044.72
2023-04-16T18:42:56.361Z,93036.63
2023-04-16T18:45:23.428Z,93042.41
2023-04-16T18:47:50.840Z,93052.69
2023-04-16T18:50:17.984Z,93046.22
2023-04-16T18:52:45.217Z,93043.47
2023-04-16T18:55:13.540Z,93050.72
2023-04-16T18:57:40.511Z,93050.91
2023-04-16T19:00:12.762Z,93053.94
2023-04-16T19:02:40.165Z,93061.81
2023-04-16T19:05:08.641Z,93047.34
2023-04-16T19:07:36.154Z,93050.91
2023-04-16T19:10:03.138Z,93049.88
2023-04-16T19:12:31.643Z,93045.25
2023-04-16T19:14:59.070Z,93052.72
2023-04-16T19:17:26.679Z,93048.38
2023-04-16T19:19:53.750Z,93047.91
2023-04-16T19:22:21.186Z,93047.75
2023-04-16T19:24:48.227Z,93043.91
2023-04-16T19:27:15.382Z,93041.50
2023-04-16T19:29:43.761Z,93040.16
2023-04-16T19:32:10.826Z,93037.25
2023-04-16T19:34:38.771Z,93034.69
2023-04-16T19:37:05.814Z,93033.59
2023-04-16T19:39:33.323Z,93030.66
2023-04-16T19:42:01.821Z,93026.94
2023-04-16T19:44:28.822Z,93038.03
2023-04-16T19:46:57.132Z,93029.38
2023-04-16T19:49:34.174Z,93027.44
2023-04-16T19:52:01.488Z,93034.94
2023-04-16T19:54:28.909Z,93034.53
2023-04-16T19:56:57.115Z,93037.72
2023-04-16T19:59:25.049Z,93036.22
2023-04-16T20:01:52.289Z,93034.19
2023-04-16T20:04:20.790Z,93030.38
2023-04-16T20:06:47.851Z,93040.34
2023-04-16T20:09:14.784Z,93043.72
2023-04-16T20:11:41.849Z,93038.66
2023-04-16T20:14:09.095Z,93043.19
2023-04-16T20:16:38.684Z,93036.72
2023-04-16T20:19:08.696Z,93039.28
2023-04-16T20:21:37.613Z,93040.00
2023-04-16T20:24:04.973Z,93038.41
2023-04-16T20:26:34.108Z,93040.16
2023-04-16T20:29:01.203Z,93031.66
2023-04-16T20:31:28.336Z,93026.75
2023-04-16T20:34:13.999Z,93026.03
2023-04-16T20:36:42.527Z,93027.91
2023-04-16T20:39:10.793Z,93028.50
2023-04-16T20:41:43.860Z,93029.75
2023-04-16T20:44:18.794Z,93029.50
2023-04-16T20:46:49.673Z,93038.28
2023-04-16T20:49:18.481Z,93033.72
2023-04-16T20:51:46.777Z,93035.31
2023-04-16T20:54:13.535Z,93027.34
2023-04-16T20:56:40.832Z,93031.63
2023-04-16T20:59:07.861Z,93028.63
2023-04-16T21:01:35.333Z,93029.97
2023-04-16T21:04:02.597Z,93027.38
2023-04-16T21:06:32.960Z,93033.09
2023-04-16T21:09:01.332Z,93033.00
2023-04-16T21:11:29.416Z,93027.69
2023-04-16T21:13:56.526Z,93024.19
2023-04-16T21:16:23.555Z,93029.34
2023-04-16T21:18:50.780Z,93028.28
2023-04-16T21:21:18.144Z,93022.75
2023-04-16T21:23:45.342Z,93020.88
2023-04-16T21:26:13.655Z,93019.53
2023-04-16T21:28:40.654Z,93017.53
2023-04-16T21:31:07.692Z,93013.91
2023-04-16T21:33:34.731Z,93017.03
2023-04-16T21:36:01.723Z,93010.47
2023-04-16T21:38:28.667Z,93011.97
2023-04-16T21:40:55.810Z,93014.28
2023-04-16T21:43:24.260Z,93011.38
2023-04-16T21:45:52.327Z,93011.53
2023-04-16T21:48:19.419Z,93022.03
2023-04-16T21:50:46.363Z,93012.50
2023-04-16T21:53:13.354Z,93015.91
2023-04-16T21:55:41.801Z,93016.28
2023-04-16T21:58:08.741Z,93019.19
2023-04-16T22:00:37.315Z,93018.16
2023-04-16T22:03:04.542Z,93017.06
2023-04-16T22:05:33.309Z,93015.16
2023-04-16T22:08:02.616Z,93019.00
2023-04-16T22:10:35.026Z,93021.91
2023-04-16T22:13:02.137Z,93013.38
2023-04-16T22:15:29.200Z,93014.28
2023-04-16T22:17:57.721Z,93016.94
2023-04-16T22:20:24.799Z,93011.94
2023-04-16T22:22:53.542Z,93013.91
2023-04-16T22:25:20.469Z,93011.16
2023-04-16T22:27:47.626Z,92996.94
2023-04-16T22:30:15.214Z,93003.50
2023-04-16T22:32:42.225Z,93003.69
2023-04-16T22:35:12.629Z,93005.72
2023-04-16T22:37:39.620Z,92995.41
2023-04-16T22:40:11.521Z,92991.19
2023-04-16T22:42:38.558Z,93002.94
2023-04-16T22:45:07.374Z,92996.84
2023-04-16T22:47:34.502Z,92993.59
2023-04-16T22:50:01.485Z,92983.16
2023-04-16T22:52:30.014Z,92985.81
2023-04-16T22:54:56.737Z,92986.91
2023-04-16T22:57:26.894Z,92982.81
2023-04-16T22:59:53.940Z,92984.84
2023-04-16T23:02:21.273Z,92983.09
2023-04-16T23:04:48.358Z,92987.44
2023-04-16T23:07:15.703Z,92980.16
2023-04-16T23:09:44.073Z,92983.53
2023-04-16T23:12:11.112Z,92979.28
2023-04-16T23:14:38.130Z,92974.56
2023-04-16T23:17:05.169Z,92972.84
2023-04-16T23:19:32.119Z,92975.94
2023-04-16T23:21:59.201Z,92979.16
2023-04-16T23:24:26.562Z,92972.91
2023-04-16T23:26:54.900Z,92975.66
2023-04-16T23:29:21.878Z,92982.66
2023-04-16T23:31:48.994Z,92976.97
2023-04-16T23:34:16.053Z,92976.81
2023-04-16T23:36:43.089Z,92978.41
2023-04-16T23:39:10.307Z,92975.28
2023-04-16T23:41:37.428Z,92970.31
2023-04-16T23:44:05.960Z,92964.03
2023-04-16T23:46:33.019Z,92964.25
2023-04-16T23:49:00.138Z,92962.13
2023-04-16T23:51:27.156Z,92960.97
2023-04-16T23:53:54.129Z,92960.78
2023-04-16T23:56:21.237Z,92959.56
2023-04-16T23:58:48.224Z,92955.38
